createdAt,value
2022-10-05T00:00:25.794Z,93.92
2022-10-05T00:01:25.863Z,94.02
2022-10-05T00:02:25.735Z,94.07
2022-10-05T00:03:25.654Z,94.02
2022-10-05T00:04:25.663Z,93.41
2022-10-05T00:05:25.766Z,93.51
2022-10-05T00:06:25.669Z,94.17
2022-10-05T00:07:25.654Z,93.71
2022-10-05T00:08:25.635Z,93.96
2022-10-05T00:09:25.625Z,93.92
2022-10-05T00:10:25.622Z,93.25
2022-10-05T00:11:25.636Z,93.82
2022-10-05T00:12:25.744Z,93.62
2022-10-05T00:13:25.731Z,94.07
2022-10-05T00:14:25.643Z,94.07
2022-10-05T00:15:25.734Z,93.96
2022-10-05T00:16:25.819Z,93.66
2022-10-05T00:17:25.751Z,93.76
2022-10-05T00:18:25.650Z,93.96
2022-10-05T00:19:25.629Z,93.86
2022-10-05T00:20:25.643Z,93.29
2022-10-05T00:21:25.900Z,93.49
2022-10-05T00:22:25.629Z,93.29
2022-10-05T00:23:25.809Z,92.88
2022-10-05T00:24:25.505Z,93.29
2022-10-05T00:25:25.506Z,92.78
2022-10-05T00:26:25.564Z,92.88
2022-10-05T00:27:25.555Z,93.60
2022-10-05T00:28:25.763Z,93.23
2022-10-05T00:29:25.490Z,93.95
2022-10-05T00:30:25.533Z,93.59
2022-10-05T00:31:25.627Z,94.85
2022-10-05T00:32:25.534Z,94.76
2022-10-05T00:33:25.520Z,95.83
2022-10-05T00:34:25.602Z,96.08
2022-10-05T00:35:25.585Z,97.10
2022-10-05T00:36:26.546Z,97.31
2022-10-05T00:37:25.784Z,97.47
2022-10-05T00:38:25.659Z,97.47
2022-10-05T00:39:25.493Z,97.27
2022-10-05T00:40:25.496Z,97.63
2022-10-05T00:41:25.497Z,97.42
2022-10-05T00:42:25.447Z,97.32
2022-10-05T00:43:25.460Z,96.95
2022-10-05T00:44:25.393Z,96.60
2022-10-05T00:45:25.567Z,97.12
2022-10-05T00:46:25.493Z,96.70
2022-10-05T00:47:25.378Z,96.40
2022-10-05T00:48:25.442Z,96.45
2022-10-05T00:49:25.469Z,96.25
2022-10-05T00:50:25.441Z,96.25
2022-10-05T00:51:25.417Z,95.84
2022-10-05T00:52:25.498Z,95.43
2022-10-05T00:53:25.394Z,95.74
2022-10-05T00:54:25.385Z,96.45
2022-10-05T00:55:25.383Z,95.32
2022-10-05T00:56:25.363Z,96.25
2022-10-05T00:57:25.368Z,96.31
2022-10-05T00:58:25.359Z,95.32
2022-10-05T00:59:25.395Z,96.25
2022-10-05T01:00:25.381Z,95.90
2022-10-05T01:01:25.530Z,95.59
2022-10-05T01:02:25.466Z,95.32
2022-10-05T01:03:25.263Z,95.12
2022-10-05T01:04:25.208Z,95.23
2022-10-05T01:05:25.283Z,95.49
2022-10-05T01:06:25.306Z,94.51
2022-10-05T01:07:25.390Z,93.89
2022-10-05T01:08:25.283Z,93.99
2022-10-05T01:09:25.260Z,93.27
2022-10-05T01:10:25.248Z,93.42
2022-10-05T01:11:25.251Z,93.93
2022-10-05T01:12:25.329Z,93.93
2022-10-05T01:13:25.223Z,94.85
2022-10-05T01:14:26.138Z,95.78
2022-10-05T01:15:25.212Z,95.27
2022-10-05T01:16:25.268Z,95.47
2022-10-05T01:17:25.209Z,95.98
2022-10-05T01:18:25.257Z,95.98
2022-10-05T01:19:25.113Z,95.89
2022-10-05T01:20:25.085Z,96.19
2022-10-05T01:21:26.136Z,95.78
2022-10-05T01:22:25.090Z,95.47
2022-10-05T01:23:25.184Z,95.27
2022-10-05T01:24:25.207Z,96.40
2022-10-05T01:25:25.530Z,96.40
2022-10-05T01:26:25.161Z,95.47
2022-10-05T01:27:25.170Z,96.50
2022-10-05T01:28:25.556Z,95.89
2022-10-05T01:29:25.132Z,96.55
2022-10-05T01:30:25.124Z,96.75
2022-10-05T01:31:25.198Z,96.60
2022-10-05T01:32:25.107Z,96.85
2022-10-05T01:33:25.361Z,96.91
2022-10-05T01:34:25.068Z,97.02
2022-10-05T01:35:25.015Z,97.02
2022-10-05T01:36:25.073Z,96.91
2022-10-05T01:37:24.978Z,97.02
2022-10-05T01:38:24.982Z,96.91
2022-10-05T01:39:25.025Z,96.30
2022-10-05T01:40:24.991Z,96.91
2022-10-05T01:41:24.962Z,96.70
2022-10-05T01:42:25.044Z,96.81
2022-10-05T01:43:25.072Z,96.91
2022-10-05T01:44:25.049Z,96.81
2022-10-05T01:45:25.110Z,96.40
2022-10-05T01:46:24.983Z,95.98
2022-10-05T01:47:24.994Z,96.30
2022-10-05T01:48:24.993Z,96.40
2022-10-05T01:49:24.982Z,95.93
2022-10-05T01:50:25.024Z,96.40
2022-10-05T01:51:24.961Z,96.03
2022-10-05T01:52:24.965Z,95.78
2022-10-05T01:53:24.867Z,96.09
2022-10-05T01:54:24.845Z,95.78
2022-10-05T01:55:24.974Z,95.89
2022-10-05T01:56:24.844Z,95.78
2022-10-05T01:57:24.833Z,95.98
2022-10-05T01:58:24.822Z,96.44
2022-10-05T01:59:24.816Z,95.78
2022-10-05T02:00:24.812Z,96.09
2022-10-05T02:01:24.923Z,95.98
2022-10-05T02:02:24.923Z,95.98
2022-10-05T02:03:24.880Z,95.68
2022-10-05T02:04:56.395Z,96.09
2022-10-05T02:05:26.804Z,95.98
2022-10-05T02:06:25.006Z,96.19
2022-10-05T02:07:24.856Z,96.09
2022-10-05T02:08:24.952Z,96.19
2022-10-05T02:09:24.825Z,96.03
2022-10-05T02:10:24.837Z,96.14
2022-10-05T02:11:24.891Z,96.44
2022-10-05T02:12:25.692Z,96.50
2022-10-05T02:13:24.813Z,96.40
2022-10-05T02:14:24.723Z,96.30
2022-10-05T02:15:24.682Z,96.85
2022-10-05T02:16:24.746Z,96.69
2022-10-05T02:17:24.941Z,95.30
2022-10-05T02:18:24.764Z,96.58
2022-10-05T02:19:24.727Z,96.78
2022-10-05T02:20:25.726Z,97.30
2022-10-05T02:21:24.779Z,97.77
2022-10-05T02:22:24.773Z,97.87
2022-10-05T02:23:24.790Z,98.24
2022-10-05T02:24:24.746Z,98.24
2022-10-05T02:25:24.720Z,97.41
2022-10-05T02:26:24.790Z,96.94
2022-10-05T02:27:24.768Z,97.19
2022-10-05T02:28:24.789Z,97.19
2022-10-05T02:29:24.601Z,97.09
2022-10-05T02:30:24.596Z,97.96
2022-10-05T02:31:24.781Z,98.43
2022-10-05T02:32:24.592Z,98.47
2022-10-05T02:33:24.571Z,98.47
2022-10-05T02:34:24.769Z,98.88
2022-10-05T02:35:24.575Z,98.63
2022-10-05T02:36:24.701Z,98.74
2022-10-05T02:37:24.986Z,98.63
2022-10-05T02:38:24.616Z,98.53
2022-10-05T02:39:24.638Z,98.84
2022-10-05T02:40:24.622Z,98.94
2022-10-05T02:41:24.658Z,98.90
2022-10-05T02:42:24.571Z,99.00
2022-10-05T02:43:24.644Z,99.99
2022-10-05T02:44:24.558Z,99.62
2022-10-05T02:45:24.628Z,99.88
2022-10-05T02:46:24.666Z,99.32
2022-10-05T02:47:24.564Z,99.99
2022-10-05T02:48:24.469Z,99.11
2022-10-05T02:49:24.437Z,98.91
2022-10-05T02:50:24.635Z,98.85
2022-10-05T02:51:24.430Z,98.29
2022-10-05T02:52:24.425Z,98.19
2022-10-05T02:53:24.570Z,97.67
2022-10-05T02:54:24.512Z,97.37
2022-10-05T02:55:24.505Z,97.16
2022-10-05T02:56:24.432Z,97.52
2022-10-05T02:57:24.460Z,97.37
2022-10-05T02:58:24.454Z,97.06
2022-10-05T02:59:24.520Z,97.06
2022-10-05T03:00:24.989Z,96.85
2022-10-05T03:01:24.513Z,96.95
2022-10-05T03:02:24.490Z,96.65
2022-10-05T03:03:24.403Z,96.85
2022-10-05T03:04:24.313Z,96.59
2022-10-05T03:05:24.322Z,97.00
2022-10-05T03:06:24.422Z,96.90
2022-10-05T03:07:24.468Z,96.95
2022-10-05T03:08:24.375Z,96.69
2022-10-05T03:09:24.501Z,96.59
2022-10-05T03:10:24.376Z,96.44
2022-10-05T03:11:24.479Z,95.97
2022-10-05T03:12:24.415Z,96.23
2022-10-05T03:13:24.442Z,95.21
2022-10-05T03:14:24.349Z,95.25
2022-10-05T03:15:24.363Z,95.97
2022-10-05T03:16:24.376Z,96.18
2022-10-05T03:17:24.250Z,95.25
2022-10-05T03:18:27.417Z,95.83
2022-10-05T03:19:26.225Z,96.18
2022-10-05T03:20:24.268Z,96.18
2022-10-05T03:21:24.231Z,96.08
2022-10-05T03:22:24.209Z,95.15
2022-10-05T03:23:24.213Z,95.56
2022-10-05T03:24:24.180Z,95.50
2022-10-05T03:25:24.181Z,95.61
2022-10-05T03:26:24.304Z,94.21
2022-10-05T03:27:24.242Z,94.98
2022-10-05T03:28:24.430Z,95.02
2022-10-05T03:29:24.233Z,96.52
2022-10-05T03:30:24.251Z,96.46
2022-10-05T03:31:24.267Z,96.00
2022-10-05T03:32:25.183Z,95.95
2022-10-05T03:33:24.211Z,96.62
2022-10-05T03:34:24.273Z,97.03
2022-10-05T03:35:24.197Z,97.03
2022-10-05T03:36:24.112Z,96.52
2022-10-05T03:37:24.107Z,97.09
2022-10-05T03:38:24.140Z,97.03
2022-10-05T03:39:24.184Z,97.40
2022-10-05T03:40:24.116Z,97.24
2022-10-05T03:41:24.060Z,96.58
2022-10-05T03:42:24.084Z,96.72
2022-10-05T03:43:31.357Z,96.11
2022-10-05T03:44:24.075Z,96.21
2022-10-05T03:45:24.110Z,95.64
2022-10-05T03:46:24.207Z,96.56
2022-10-05T03:47:24.129Z,96.36
2022-10-05T03:48:24.076Z,96.30
2022-10-05T03:49:24.134Z,96.61
2022-10-05T03:50:24.139Z,96.41
2022-10-05T03:51:24.099Z,95.95
2022-10-05T03:52:24.079Z,96.56
2022-10-05T03:53:24.091Z,96.67
2022-10-05T03:54:24.154Z,97.08
2022-10-05T03:55:24.113Z,97.69
2022-10-05T03:56:23.976Z,97.49
2022-10-05T03:57:25.104Z,97.80
2022-10-05T03:58:23.963Z,97.90
2022-10-05T03:59:25.243Z,97.90
2022-10-05T04:00:24.006Z,97.80
2022-10-05T04:01:23.995Z,97.49
2022-10-05T04:02:23.998Z,97.60
2022-10-05T04:03:23.932Z,97.43
2022-10-05T04:04:23.981Z,97.64
2022-10-05T04:05:23.973Z,97.64
2022-10-05T04:06:24.026Z,97.53
2022-10-05T04:07:23.984Z,97.90
2022-10-05T04:08:23.953Z,98.15
2022-10-05T04:09:23.977Z,98.93
2022-10-05T04:10:24.021Z,98.83
2022-10-05T04:11:23.945Z,99.04
2022-10-05T04:12:24.003Z,99.14
2022-10-05T04:13:23.903Z,98.99
2022-10-05T04:14:23.843Z,99.30
2022-10-05T04:15:23.817Z,99.19
2022-10-05T04:16:23.855Z,99.09
2022-10-05T04:17:23.853Z,99.60
2022-10-05T04:18:23.839Z,99.46
2022-10-05T04:19:23.776Z,99.66
2022-10-05T04:20:23.796Z,99.46
2022-10-05T04:21:24.183Z,99.46
2022-10-05T04:22:24.861Z,99.31
2022-10-05T04:23:23.795Z,99.41
2022-10-05T04:24:23.810Z,99.62
2022-10-05T04:25:23.922Z,99.41
2022-10-05T04:26:23.845Z,99.62
2022-10-05T04:27:23.820Z,99.62
2022-10-05T04:28:26.999Z,99.31
2022-10-05T04:29:24.843Z,99.31
2022-10-05T04:30:23.807Z,99.31
2022-10-05T04:31:23.933Z,99.21
2022-10-05T04:32:23.825Z,99.41
2022-10-05T04:33:23.834Z,99.37
2022-10-05T04:34:24.004Z,99.62
2022-10-05T04:35:23.681Z,99.72
2022-10-05T04:36:23.687Z,99.05
2022-10-05T04:37:23.784Z,99.51
2022-10-05T04:38:23.646Z,99.62
2022-10-05T04:39:24.673Z,99.72
2022-10-05T04:40:23.660Z,99.62
2022-10-05T04:41:23.621Z,99.31
2022-10-05T04:42:23.770Z,99.88
2022-10-05T04:43:23.791Z,99.99
2022-10-05T04:44:24.923Z,99.99
2022-10-05T04:45:23.776Z,99.99
2022-10-05T04:46:23.782Z,99.99
2022-10-05T04:47:23.758Z,99.99
2022-10-05T04:48:23.729Z,99.99
2022-10-05T04:49:24.193Z,99.98
2022-10-05T04:50:23.716Z,99.99
2022-10-05T04:51:23.704Z,99.99
2022-10-05T04:52:23.563Z,99.93
2022-10-05T04:53:23.574Z,99.83
2022-10-05T04:54:24.171Z,99.93
2022-10-05T04:55:23.577Z,99.93
2022-10-05T04:56:23.573Z,99.57
2022-10-05T04:57:23.601Z,99.73
2022-10-05T04:58:23.632Z,99.88
2022-10-05T04:59:23.666Z,99.99
2022-10-05T05:00:23.709Z,99.99
2022-10-05T05:01:23.658Z,99.99
2022-10-05T05:02:23.716Z,99.99
2022-10-05T05:03:23.603Z,99.99
2022-10-05T05:04:23.644Z,99.99
2022-10-05T05:05:23.568Z,99.99
2022-10-05T05:06:23.502Z,99.99
2022-10-05T05:07:23.438Z,99.99
2022-10-05T05:08:23.541Z,99.99
2022-10-05T05:09:23.457Z,99.99
2022-10-05T05:10:23.479Z,99.99
2022-10-05T05:11:24.713Z,99.99
2022-10-05T05:12:24.439Z,99.99
2022-10-05T05:13:23.443Z,99.99
2022-10-05T05:14:23.522Z,99.99
2022-10-05T05:15:23.486Z,99.99
2022-10-05T05:16:23.628Z,99.99
2022-10-05T05:17:23.446Z,99.79
2022-10-05T05:18:23.464Z,99.99
2022-10-05T05:19:23.439Z,99.83
2022-10-05T05:20:23.432Z,99.99
2022-10-05T05:21:23.477Z,99.52
2022-10-05T05:22:23.502Z,99.83
2022-10-05T05:23:24.212Z,99.93
2022-10-05T05:24:23.412Z,99.99
2022-10-05T05:25:23.318Z,99.99
2022-10-05T05:26:23.307Z,99.99
2022-10-05T05:27:23.399Z,99.99
2022-10-05T05:28:23.319Z,99.99
2022-10-05T05:29:23.300Z,99.99
2022-10-05T05:30:23.370Z,99.99
2022-10-05T05:31:23.380Z,99.99
2022-10-05T05:32:23.276Z,99.99
2022-10-05T05:33:23.439Z,99.99
2022-10-05T05:34:23.365Z,99.99
2022-10-05T05:35:23.358Z,99.99
2022-10-05T05:36:23.691Z,99.99
2022-10-05T05:37:24.316Z,99.99
2022-10-05T05:38:23.336Z,99.99
2022-10-05T05:39:23.301Z,99.99
2022-10-05T05:40:23.402Z,99.99
2022-10-05T05:41:23.208Z,99.99
2022-10-05T05:42:23.250Z,99.99
2022-10-05T05:43:23.177Z,99.99
2022-10-05T05:44:24.351Z,99.99
2022-10-05T05:45:23.147Z,99.99
2022-10-05T05:46:34.175Z,99.99
2022-10-05T05:47:25.236Z,99.99
2022-10-05T05:48:23.151Z,99.99
2022-10-05T05:49:23.665Z,99.99
2022-10-05T05:50:23.219Z,99.99
2022-10-05T05:51:23.202Z,99.99
2022-10-05T05:52:23.235Z,99.99
2022-10-05T05:53:23.198Z,99.99
2022-10-05T05:54:23.182Z,99.99
2022-10-05T05:55:27.632Z,99.99
2022-10-05T05:56:25.116Z,99.99
2022-10-05T05:57:23.169Z,99.99
2022-10-05T05:58:23.172Z,99.99
2022-10-05T05:59:23.145Z,99.99
2022-10-05T06:00:23.088Z,99.99
2022-10-05T06:01:32.562Z,99.99
2022-10-05T06:02:25.140Z,99.99
2022-10-05T06:03:23.138Z,99.99
2022-10-05T06:04:23.042Z,99.99
2022-10-05T06:05:23.031Z,99.99
2022-10-05T06:06:23.097Z,99.99
2022-10-05T06:07:25.688Z,99.99
2022-10-05T06:08:25.036Z,99.99
2022-10-05T06:09:23.038Z,99.99
2022-10-05T06:10:23.091Z,99.99
2022-10-05T06:11:23.097Z,99.99
2022-10-05T06:12:23.077Z,99.99
2022-10-05T06:13:23.121Z,99.99
2022-10-05T06:14:23.058Z,99.99
2022-10-05T06:15:23.061Z,99.99
2022-10-05T06:16:23.096Z,99.55
2022-10-05T06:17:24.068Z,99.70
2022-10-05T06:18:23.016Z,99.86
2022-10-05T06:19:23.031Z,99.45
2022-10-05T06:20:23.037Z,99.70
2022-10-05T06:21:23.001Z,99.91
2022-10-05T06:22:22.968Z,99.99
2022-10-05T06:23:22.907Z,99.25
2022-10-05T06:24:23.024Z,99.55
2022-10-05T06:25:22.949Z,99.30
2022-10-05T06:26:22.979Z,99.61
2022-10-05T06:27:22.950Z,99.61
2022-10-05T06:28:24.109Z,98.99
2022-10-05T06:29:22.959Z,99.30
2022-10-05T06:30:22.966Z,99.51
2022-10-05T06:31:22.960Z,99.51
2022-10-05T06:32:22.994Z,99.61
2022-10-05T06:33:22.987Z,99.51
2022-10-05T06:34:22.920Z,99.41
2022-10-05T06:35:22.919Z,98.85
2022-10-05T06:36:23.273Z,98.85
2022-10-05T06:37:22.844Z,99.05
2022-10-05T06:38:22.788Z,98.65
2022-10-05T06:39:22.923Z,98.90
2022-10-05T06:40:22.868Z,98.90
2022-10-05T06:41:22.864Z,99.11
2022-10-05T06:42:22.861Z,99.01
2022-10-05T06:43:22.927Z,98.90
2022-10-05T06:44:22.906Z,98.60
2022-10-05T06:45:22.850Z,98.75
2022-10-05T06:46:22.954Z,98.60
2022-10-05T06:47:22.818Z,98.14
2022-10-05T06:48:22.810Z,98.65
2022-10-05T06:49:22.828Z,98.45
2022-10-05T06:50:23.236Z,98.30
2022-10-05T06:51:22.820Z,98.24
2022-10-05T06:52:22.733Z,98.20
2022-10-05T06:53:22.727Z,98.10
2022-10-05T06:54:22.661Z,98.10
2022-10-05T06:55:22.913Z,97.99
2022-10-05T06:56:22.714Z,97.95
2022-10-05T06:57:22.767Z,97.74
2022-10-05T06:58:22.768Z,97.74
2022-10-05T06:59:22.755Z,97.24
2022-10-05T07:00:22.766Z,97.08
2022-10-05T07:01:22.822Z,96.68
2022-10-05T07:02:22.808Z,96.88
2022-10-05T07:03:22.712Z,96.78
2022-10-05T07:04:22.751Z,96.58
2022-10-05T07:05:22.842Z,96.27
2022-10-05T07:06:22.781Z,96.27
2022-10-05T07:07:22.720Z,96.47
2022-10-05T07:08:22.611Z,96.02
2022-10-05T07:09:22.602Z,95.72
2022-10-05T07:10:22.676Z,95.81
2022-10-05T07:11:22.621Z,95.87
2022-10-05T07:12:22.642Z,95.16
2022-10-05T07:13:22.714Z,95.47
2022-10-05T07:14:22.672Z,95.31
2022-10-05T07:15:22.662Z,95.26
2022-10-05T07:16:22.720Z,95.61
2022-10-05T07:17:22.628Z,95.16
2022-10-05T07:18:22.680Z,95.31
2022-10-05T07:19:22.589Z,95.31
2022-10-05T07:20:22.624Z,95.77
2022-10-05T07:21:22.574Z,95.06
2022-10-05T07:22:22.573Z,95.87
2022-10-05T07:23:22.604Z,95.87
2022-10-05T07:24:22.536Z,95.62
2022-10-05T07:25:22.584Z,95.21
2022-10-05T07:26:22.523Z,95.21
2022-10-05T07:27:22.446Z,94.60
2022-10-05T07:28:22.631Z,94.50
2022-10-05T07:29:22.541Z,95.52
2022-10-05T07:30:22.521Z,94.09
2022-10-05T07:31:22.598Z,95.01
2022-10-05T07:32:22.527Z,94.71
2022-10-05T07:33:22.542Z,94.71
2022-10-05T07:34:22.516Z,95.01
2022-10-05T07:35:22.505Z,94.50
2022-10-05T07:36:22.481Z,94.76
2022-10-05T07:37:22.548Z,94.56
2022-10-05T07:38:22.535Z,94.62
2022-10-05T07:39:23.536Z,94.46
2022-10-05T07:40:22.911Z,94.52
2022-10-05T07:41:22.496Z,95.68
2022-10-05T07:42:22.430Z,94.56
2022-10-05T07:43:22.367Z,94.46
2022-10-05T07:44:22.351Z,94.66
2022-10-05T07:45:22.339Z,94.66
2022-10-05T07:46:22.434Z,94.76
2022-10-05T07:47:22.319Z,94.66
2022-10-05T07:48:22.347Z,95.17
2022-10-05T07:49:22.341Z,94.76
2022-10-05T07:50:22.588Z,94.66
2022-10-05T07:51:22.367Z,94.66
2022-10-05T07:52:22.324Z,94.46
2022-10-05T07:53:22.370Z,94.66
2022-10-05T07:54:22.344Z,95.28
2022-10-05T07:55:22.363Z,95.17
2022-10-05T07:56:22.385Z,94.72
2022-10-05T07:57:22.295Z,94.72
2022-10-05T07:58:22.428Z,94.76
2022-10-05T07:59:22.305Z,95.13
2022-10-05T08:00:22.495Z,94.82
2022-10-05T08:01:22.352Z,94.35
2022-10-05T08:02:22.531Z,95.13
2022-10-05T08:03:22.351Z,94.01
2022-10-05T08:04:22.272Z,94.27
2022-10-05T08:05:22.285Z,94.88
2022-10-05T08:06:22.146Z,94.62
2022-10-05T08:08:22.195Z,93.66
2022-10-05T08:09:22.248Z,92.94
2022-10-05T08:10:23.202Z,92.03
2022-10-05T08:11:22.210Z,91.93
2022-10-05T08:12:22.329Z,91.93
2022-10-05T08:13:22.209Z,91.72
2022-10-05T08:14:22.200Z,91.83
2022-10-05T08:15:22.188Z,90.50
2022-10-05T08:16:22.260Z,90.81
2022-10-05T08:17:25.485Z,91.22
2022-10-05T08:18:23.219Z,91.31
2022-10-05T08:19:22.203Z,91.52
2022-10-05T08:20:22.173Z,91.58
2022-10-05T08:21:22.053Z,91.68
2022-10-05T08:22:22.066Z,91.88
2022-10-05T08:23:22.028Z,91.68
2022-10-05T08:24:22.255Z,91.68
2022-10-05T08:25:22.144Z,91.64
2022-10-05T08:26:22.163Z,91.13
2022-10-05T08:27:22.189Z,91.53
2022-10-05T08:28:22.182Z,91.64
2022-10-05T08:29:22.228Z,91.23
2022-10-05T08:30:22.092Z,90.62
2022-10-05T08:31:22.156Z,90.72
2022-10-05T08:32:22.066Z,91.13
2022-10-05T08:33:22.060Z,91.13
2022-10-05T08:34:22.052Z,90.83
2022-10-05T08:35:22.100Z,91.33
2022-10-05T08:36:22.036Z,91.19
2022-10-05T08:37:22.031Z,90.94
2022-10-05T08:38:21.988Z,89.87
2022-10-05T08:39:21.965Z,90.44
2022-10-05T08:40:21.946Z,89.46
2022-10-05T08:41:21.982Z,89.01
2022-10-05T08:42:21.944Z,89.11
2022-10-05T08:43:21.949Z,88.91
2022-10-05T08:44:21.929Z,88.40
2022-10-05T08:45:21.923Z,88.40
2022-10-05T08:46:22.004Z,89.01
2022-10-05T08:47:21.986Z,89.42
2022-10-05T08:48:21.975Z,89.01
2022-10-05T08:49:21.941Z,88.91
2022-10-05T08:50:21.943Z,88.91
2022-10-05T08:51:22.179Z,88.76
2022-10-05T08:52:22.016Z,88.36
2022-10-05T08:53:21.981Z,88.91
2022-10-05T08:54:21.907Z,88.40
2022-10-05T08:55:21.894Z,88.50
2022-10-05T08:56:26.367Z,88.13
2022-10-05T08:57:24.055Z,89.01
2022-10-05T08:58:21.963Z,88.75
2022-10-05T08:59:21.836Z,89.36
2022-10-05T09:00:21.866Z,89.76
2022-10-05T09:01:22.040Z,90.17
2022-10-05T09:02:21.905Z,90.03
2022-10-05T09:03:21.831Z,89.83
2022-10-05T09:04:21.841Z,89.46
2022-10-05T09:05:21.778Z,90.23
2022-10-05T09:06:21.748Z,89.26
2022-10-05T09:07:21.754Z,89.52
2022-10-05T09:08:21.798Z,89.72
2022-10-05T09:09:21.743Z,89.72
2022-10-05T09:10:21.755Z,88.76
2022-10-05T09:11:21.769Z,88.76
2022-10-05T09:12:21.803Z,87.95
2022-10-05T09:13:21.822Z,88.01
2022-10-05T09:14:21.767Z,88.21
2022-10-05T09:15:25.766Z,87.45
2022-10-05T09:16:22.922Z,87.92
2022-10-05T09:17:21.733Z,87.71
2022-10-05T09:18:21.727Z,88.01
2022-10-05T09:19:21.767Z,87.46
2022-10-05T09:20:21.718Z,87.81
2022-10-05T09:21:21.768Z,87.92
2022-10-05T09:22:21.810Z,88.12
2022-10-05T09:23:21.700Z,87.87
2022-10-05T09:24:21.675Z,87.83
2022-10-05T09:25:21.588Z,87.63
2022-10-05T09:26:21.688Z,87.28
2022-10-05T09:27:21.684Z,86.57
2022-10-05T09:28:21.921Z,85.36
2022-10-05T09:29:21.633Z,84.91
2022-10-05T09:30:21.708Z,84.00
2022-10-05T09:31:21.698Z,84.20
2022-10-05T09:32:21.622Z,85.52
2022-10-05T09:33:21.619Z,85.21
2022-10-05T09:34:21.659Z,84.56
2022-10-05T09:35:21.773Z,84.16
2022-10-05T09:36:21.705Z,84.70
2022-10-05T09:37:21.635Z,83.80
2022-10-05T09:38:21.593Z,84.36
2022-10-05T09:39:21.582Z,84.41
2022-10-05T09:40:21.648Z,84.10
2022-10-05T09:41:21.604Z,84.70
2022-10-05T09:42:21.451Z,85.21
2022-10-05T09:43:21.465Z,85.52
2022-10-05T09:44:21.552Z,84.67
2022-10-05T09:45:21.718Z,85.21
2022-10-05T09:46:22.701Z,83.90
2022-10-05T09:47:21.439Z,83.86
2022-10-05T09:48:21.542Z,84.27
2022-10-05T09:49:21.578Z,83.39
2022-10-05T09:50:21.604Z,84.30
2022-10-05T09:51:21.612Z,83.90
2022-10-05T09:52:21.496Z,84.67
2022-10-05T09:53:21.548Z,84.50
2022-10-05T09:54:21.526Z,83.86
2022-10-05T09:55:21.445Z,84.27
2022-10-05T09:56:21.513Z,83.25
2022-10-05T09:57:21.604Z,82.70
2022-10-05T09:58:21.510Z,82.30
2022-10-05T09:59:21.435Z,82.84
2022-10-05T10:00:21.442Z,82.81
2022-10-05T10:01:33.085Z,83.21
2022-10-05T10:02:23.487Z,83.01
2022-10-05T10:03:21.409Z,82.70
2022-10-05T10:04:21.338Z,83.01
2022-10-05T10:05:21.399Z,82.81
2022-10-05T10:06:21.310Z,83.31
2022-10-05T10:07:21.355Z,83.04
2022-10-05T10:08:21.280Z,83.92
2022-10-05T10:09:21.331Z,82.50
2022-10-05T10:10:21.303Z,83.11
2022-10-05T10:11:21.364Z,83.92
2022-10-05T10:12:21.428Z,83.01
2022-10-05T10:13:21.409Z,83.31
2022-10-05T10:14:21.317Z,82.87
2022-10-05T10:15:21.438Z,82.36
2022-10-05T10:16:21.431Z,82.06
2022-10-05T10:17:21.323Z,82.16
2022-10-05T10:18:21.342Z,82.16
2022-10-05T10:19:21.251Z,81.99
2022-10-05T10:20:21.300Z,82.60
2022-10-05T10:21:21.176Z,82.60
2022-10-05T10:22:21.278Z,82.40
2022-10-05T10:23:21.218Z,82.56
2022-10-05T10:24:21.199Z,82.70
2022-10-05T10:25:21.284Z,82.40
2022-10-05T10:26:21.162Z,82.70
2022-10-05T10:27:21.302Z,82.34
2022-10-05T10:28:21.364Z,82.70
2022-10-05T10:29:21.295Z,82.90
2022-10-05T10:30:22.486Z,82.10
2022-10-05T10:31:21.274Z,81.29
2022-10-05T10:32:21.278Z,81.99
2022-10-05T10:33:21.240Z,80.27
2022-10-05T10:34:21.327Z,80.78
2022-10-05T10:35:21.401Z,81.29
2022-10-05T10:36:21.166Z,81.39
2022-10-05T10:37:21.175Z,80.38
2022-10-05T10:38:21.176Z,81.65
2022-10-05T10:39:21.177Z,80.54
2022-10-05T10:40:21.205Z,80.78
2022-10-05T10:41:21.169Z,80.18
2022-10-05T10:42:26.010Z,79.97
2022-10-05T10:43:23.219Z,80.58
2022-10-05T10:44:21.219Z,80.58
2022-10-05T10:45:21.172Z,80.07
2022-10-05T10:46:21.182Z,80.78
2022-10-05T10:47:21.088Z,81.96
2022-10-05T10:48:21.097Z,80.13
2022-10-05T10:49:21.078Z,80.64
2022-10-05T10:50:21.122Z,80.34
2022-10-05T10:51:20.969Z,80.30
2022-10-05T10:52:21.008Z,80.24
2022-10-05T10:53:21.013Z,80.04
2022-10-05T10:54:21.054Z,79.93
2022-10-05T10:55:21.109Z,79.90
2022-10-05T10:56:21.118Z,79.59
2022-10-05T10:57:21.145Z,79.66
2022-10-05T10:58:21.215Z,78.58
2022-10-05T10:59:21.023Z,78.75
2022-10-05T11:00:20.999Z,78.58
2022-10-05T11:01:21.519Z,78.17
2022-10-05T11:02:21.152Z,78.48
2022-10-05T11:03:20.975Z,78.78
2022-10-05T11:04:21.049Z,78.24
2022-10-05T11:05:21.030Z,78.44
2022-10-05T11:06:21.017Z,77.73
2022-10-05T11:07:21.023Z,77.80
2022-10-05T11:08:20.973Z,77.29
2022-10-05T11:09:20.988Z,77.19
2022-10-05T11:10:20.996Z,76.79
2022-10-05T11:11:20.992Z,76.79
2022-10-05T11:12:21.044Z,77.39
2022-10-05T11:13:21.005Z,77.19
2022-10-05T11:14:21.043Z,76.79
2022-10-05T11:15:20.937Z,76.08
2022-10-05T11:16:20.944Z,76.99
2022-10-05T11:17:21.980Z,77.29
2022-10-05T11:18:20.901Z,77.26
2022-10-05T11:19:20.906Z,77.36
2022-10-05T11:20:20.903Z,77.83
2022-10-05T11:21:20.872Z,77.73
2022-10-05T11:22:20.891Z,75.34
2022-10-05T11:23:20.946Z,75.31
2022-10-05T11:24:20.862Z,76.31
2022-10-05T11:25:20.995Z,75.37
2022-10-05T11:26:21.057Z,74.87
2022-10-05T11:28:20.879Z,76.18
2022-10-05T11:29:20.939Z,74.52
2022-10-05T11:30:20.916Z,74.43
2022-10-05T11:31:20.948Z,73.92
2022-10-05T11:32:20.822Z,74.96
2022-10-05T11:33:20.903Z,74.26
2022-10-05T11:34:20.834Z,74.76
2022-10-05T11:35:20.738Z,75.40
2022-10-05T11:36:20.911Z,75.24
2022-10-05T11:37:20.949Z,74.93
2022-10-05T11:38:20.767Z,75.31
2022-10-05T11:39:20.940Z,77.12
2022-10-05T11:40:20.937Z,75.51
2022-10-05T11:41:20.715Z,75.07
2022-10-05T11:42:20.868Z,74.46
2022-10-05T11:43:20.815Z,74.29
2022-10-05T11:44:20.920Z,74.69
2022-10-05T11:45:20.991Z,75.71
2022-10-05T11:46:20.749Z,75.67
2022-10-05T11:47:20.600Z,74.29
2022-10-05T11:48:20.665Z,75.67
2022-10-05T11:49:20.612Z,76.38
2022-10-05T11:50:20.646Z,74.96
2022-10-05T11:51:23.983Z,75.47
2022-10-05T11:52:21.814Z,74.87
2022-10-05T11:53:20.619Z,73.82
2022-10-05T11:54:21.638Z,73.52
2022-10-05T11:55:20.694Z,74.05
2022-10-05T11:56:20.634Z,74.90
2022-10-05T11:57:20.594Z,75.37
2022-10-05T11:58:20.621Z,75.98
2022-10-05T11:59:20.612Z,76.34
2022-10-05T12:00:20.582Z,75.03
2022-10-05T12:01:20.908Z,73.52
2022-10-05T12:02:20.688Z,74.02
2022-10-05T12:03:20.763Z,74.29
2022-10-05T12:04:20.586Z,74.66
2022-10-05T12:05:20.555Z,73.85
2022-10-05T12:06:20.708Z,72.88
2022-10-05T12:07:20.551Z,74.08
2022-10-05T12:08:20.461Z,73.79
2022-10-05T12:09:20.513Z,73.48
2022-10-05T12:10:20.606Z,75.67
2022-10-05T12:11:20.560Z,74.02
2022-10-05T12:12:20.453Z,73.35
2022-10-05T12:13:20.461Z,72.04
2022-10-05T12:14:20.409Z,73.38
2022-10-05T12:15:20.385Z,74.55
2022-10-05T12:16:20.442Z,73.55
2022-10-05T12:17:21.548Z,73.25
2022-10-05T12:18:20.371Z,73.08
2022-10-05T12:19:20.428Z,73.58
2022-10-05T12:20:20.476Z,75.20
2022-10-05T12:21:20.401Z,74.96
2022-10-05T12:22:20.633Z,73.85
2022-10-05T12:23:20.471Z,73.45
2022-10-05T12:24:25.945Z,73.95
2022-10-05T12:25:22.516Z,73.61
2022-10-05T12:26:20.445Z,72.44
2022-10-05T12:27:20.447Z,71.80
2022-10-05T12:28:20.499Z,72.37
2022-10-05T12:29:20.358Z,72.41
2022-10-05T12:30:20.349Z,72.00
2022-10-05T12:31:20.308Z,72.20
2022-10-05T12:32:20.277Z,74.46
2022-10-05T12:33:20.327Z,73.61
2022-10-05T12:34:20.229Z,72.20
2022-10-05T12:35:36.582Z,71.97
2022-10-05T12:36:22.223Z,72.27
2022-10-05T12:37:20.303Z,72.03
2022-10-05T12:38:20.221Z,71.83
2022-10-05T12:39:20.201Z,70.50
2022-10-05T12:40:20.211Z,70.26
2022-10-05T12:41:20.287Z,70.53
2022-10-05T12:42:20.359Z,69.19
2022-10-05T12:43:20.292Z,68.85
2022-10-05T12:44:20.276Z,68.89
2022-10-05T12:45:20.277Z,65.75
2022-10-05T12:46:20.343Z,65.39
2022-10-05T12:47:20.239Z,64.09
2022-10-05T12:48:20.326Z,64.42
2022-10-05T12:49:20.259Z,64.32
2022-10-05T12:50:20.320Z,61.54
2022-10-05T12:51:20.208Z,60.05
2022-10-05T12:52:20.167Z,59.02
2022-10-05T12:53:20.184Z,59.12
2022-10-05T12:54:20.231Z,60.14